Terminal Aerodrome Forecast
Issued by NWS Sioux Falls, SD

Home | Current Version | Previous Version | Text Only | Print | Product List | Glossary On
Versions: 1 2 3 4 5 6 7 8 9 10 11
000
FTUS43 KFSD 312300
TAFHON
TAF
KHON 312320Z 0100/0124 36006KT P6SM FEW070
     FM010300 16005KT P6SM SCT200
     FM011800 17011KT P6SM SCT070 BKN120=

USA.gov is the U.S. government's official web portal to all federal, state and local government web resources and services.